createdAt,value
2022-07-29T00:00:28.373Z,2.30
2022-07-29T00:04:10.552Z,2.13
2022-07-29T00:07:52.581Z,2.40
2022-07-29T00:11:34.759Z,2.70
2022-07-29T00:15:16.781Z,3.80
2022-07-29T00:19:02.131Z,2.47
2022-07-29T00:22:44.573Z,2.42
2022-07-29T00:26:28.984Z,2.45
2022-07-29T00:30:11.147Z,2.40
2022-07-29T00:33:53.384Z,2.78
2022-07-29T00:37:35.364Z,2.55
2022-07-29T00:41:18.147Z,3.00
2022-07-29T00:45:00.030Z,2.85
2022-07-29T00:48:42.022Z,2.70
2022-07-29T00:52:24.002Z,2.72
2022-07-29T00:56:06.042Z,2.27
2022-07-29T00:59:47.957Z,3.20
2022-07-29T01:03:29.925Z,3.00
2022-07-29T01:07:12.212Z,3.50
2022-07-29T01:10:55.603Z,2.85
2022-07-29T01:14:39.390Z,2.90
2022-07-29T01:18:35.157Z,2.38
2022-07-29T01:22:27.870Z,2.35
2022-07-29T01:26:21.928Z,3.00
2022-07-29T01:30:05.280Z,2.88
2022-07-29T01:33:54.138Z,2.80
2022-07-29T01:37:48.061Z,2.80
2022-07-29T01:41:35.367Z,3.70
2022-07-29T01:45:25.909Z,3.40
2022-07-29T01:49:12.194Z,4.30
2022-07-29T01:52:58.283Z,4.30
2022-07-29T01:56:41.641Z,4.05
2022-07-29T02:00:24.843Z,3.80
2022-07-29T02:04:08.777Z,3.40
2022-07-29T02:07:53.815Z,2.72
2022-07-29T02:11:38.013Z,3.40
2022-07-29T02:15:20.743Z,3.38
2022-07-29T02:19:03.996Z,3.60
2022-07-29T02:22:47.405Z,3.20
2022-07-29T02:26:31.705Z,3.90
2022-07-29T02:30:14.342Z,3.92
2022-07-29T02:33:57.268Z,3.83
2022-07-29T02:37:40.374Z,4.57
2022-07-29T02:41:27.770Z,3.50
2022-07-29T02:45:12.857Z,3.63
2022-07-29T02:49:16.948Z,3.30
2022-07-29T02:53:04.335Z,3.72
2022-07-29T02:56:47.561Z,3.60
2022-07-29T03:00:31.279Z,4.10
2022-07-29T03:04:15.814Z,3.88
2022-07-29T03:08:07.661Z,4.32
2022-07-29T03:11:51.133Z,3.70
2022-07-29T03:15:33.802Z,4.22
2022-07-29T03:19:16.101Z,3.90
2022-07-29T03:22:57.983Z,4.10
2022-07-29T03:26:39.961Z,3.67
2022-07-29T03:30:22.524Z,4.20
2022-07-29T03:34:04.608Z,4.80
2022-07-29T03:37:47.617Z,4.63
2022-07-29T03:41:31.463Z,3.60
2022-07-29T03:45:18.598Z,4.20
2022-07-29T03:49:04.206Z,4.10
2022-07-29T03:52:47.733Z,3.85
2022-07-29T03:56:30.692Z,4.65
2022-07-29T04:00:13.617Z,4.78
2022-07-29T04:03:56.016Z,4.23
2022-07-29T04:07:37.980Z,4.97
2022-07-29T04:11:20.369Z,5.00
2022-07-29T04:15:04.397Z,4.57
2022-07-29T04:18:46.323Z,4.38
2022-07-29T04:22:28.265Z,4.50
2022-07-29T04:26:11.880Z,4.50
2022-07-29T04:29:56.603Z,4.72
2022-07-29T04:33:39.569Z,4.18
2022-07-29T04:37:21.467Z,4.22
2022-07-29T04:41:03.411Z,3.80
2022-07-29T04:44:45.497Z,3.28
2022-07-29T04:48:28.923Z,4.22
2022-07-29T04:52:10.989Z,4.47
2022-07-29T04:55:52.983Z,4.43
2022-07-29T04:59:35.226Z,3.95
2022-07-29T05:03:17.236Z,3.88
2022-07-29T05:06:59.148Z,4.20
2022-07-29T05:10:41.144Z,3.90
2022-07-29T05:14:23.056Z,4.40
2022-07-29T05:18:05.417Z,4.07
2022-07-29T05:21:47.297Z,3.92
2022-07-29T05:25:43.090Z,3.67
2022-07-29T05:29:42.512Z,3.70
2022-07-29T05:33:35.044Z,4.20
2022-07-29T05:37:21.166Z,4.90
2022-07-29T05:41:03.525Z,4.35
2022-07-29T05:44:45.406Z,3.63
2022-07-29T05:48:27.570Z,4.55
2022-07-29T05:52:10.142Z,4.68
2022-07-29T05:55:52.959Z,4.10
2022-07-29T05:59:38.974Z,4.03
2022-07-29T06:03:21.473Z,3.80
2022-07-29T06:07:04.121Z,4.20
2022-07-29T06:10:46.726Z,4.03
2022-07-29T06:14:36.424Z,4.00
2022-07-29T06:18:19.255Z,3.83
2022-07-29T06:22:01.688Z,4.07
2022-07-29T06:25:51.998Z,3.92
2022-07-29T06:29:34.611Z,3.53
2022-07-29T06:33:20.544Z,3.30
2022-07-29T06:37:11.267Z,3.70
2022-07-29T06:41:01.046Z,3.58
2022-07-29T06:48:42.008Z,3.50
2022-07-29T06:52:25.780Z,3.10
2022-07-29T06:56:17.037Z,3.33
2022-07-29T06:59:59.618Z,3.70
2022-07-29T07:03:43.016Z,2.70
2022-07-29T07:11:28.712Z,2.00
2022-07-29T07:15:39.462Z,2.60
2022-07-29T07:19:22.654Z,2.57
2022-07-29T07:23:37.510Z,2.17
2022-07-29T07:27:19.640Z,2.22
2022-07-29T07:31:13.626Z,1.80
2022-07-29T07:34:56.202Z,2.15
2022-07-29T07:38:38.495Z,2.25
2022-07-29T07:42:28.354Z,1.80
2022-07-29T07:46:10.999Z,2.50
2022-07-29T07:49:54.471Z,2.30
2022-07-29T07:53:42.766Z,2.45
2022-07-29T07:57:25.843Z,1.70
2022-07-29T08:01:09.061Z,2.20
2022-07-29T08:04:58.824Z,2.80
2022-07-29T08:08:41.179Z,1.93
2022-07-29T08:12:23.703Z,1.90
2022-07-29T08:16:16.711Z,2.17
2022-07-29T08:19:59.951Z,2.73
2022-07-29T08:24:08.889Z,2.33
2022-07-29T08:27:51.328Z,1.85
2022-07-29T08:31:33.533Z,2.60
2022-07-29T08:35:25.178Z,2.23
2022-07-29T08:39:07.315Z,2.40
2022-07-29T08:42:50.109Z,2.33
2022-07-29T08:46:40.481Z,2.20
2022-07-29T08:50:23.256Z,2.53
2022-07-29T08:54:05.326Z,2.25
2022-07-29T08:57:57.290Z,2.33
2022-07-29T09:02:30.520Z,2.10
2022-07-29T09:06:16.118Z,2.42
2022-07-29T09:14:00.683Z,3.07
2022-07-29T09:17:47.187Z,2.33
2022-07-29T09:21:36.050Z,2.55
2022-07-29T09:25:35.686Z,2.23
2022-07-29T09:29:39.261Z,2.40
2022-07-29T09:33:25.375Z,2.28
2022-07-29T09:37:30.360Z,2.00
2022-07-29T09:41:12.677Z,1.60
2022-07-29T09:44:55.151Z,1.85
2022-07-29T09:48:45.562Z,2.28
2022-07-29T09:52:30.509Z,1.40
2022-07-29T10:00:19.064Z,1.75
2022-07-29T10:04:01.764Z,1.43
2022-07-29T10:08:25.732Z,1.65
2022-07-29T10:12:25.489Z,1.55
2022-07-29T10:16:08.020Z,2.30
2022-07-29T10:19:50.977Z,1.67
2022-07-29T10:23:46.928Z,1.95
2022-07-29T10:27:29.764Z,1.52
2022-07-29T10:31:41.400Z,1.80
2022-07-29T10:36:06.100Z,1.63
2022-07-29T10:40:54.994Z,2.67
2022-07-29T10:45:25.895Z,1.70
2022-07-29T10:49:35.699Z,1.90
2022-07-29T10:53:18.028Z,1.80
2022-07-29T11:01:37.774Z,1.88
2022-07-29T11:05:59.704Z,1.30
2022-07-29T11:10:15.195Z,1.70
2022-07-29T11:14:41.898Z,1.50
2022-07-29T11:18:24.566Z,1.35
2022-07-29T11:22:47.396Z,1.45
2022-07-29T11:26:45.843Z,1.27
2022-07-29T11:31:15.253Z,1.33
2022-07-29T11:35:45.920Z,1.27
2022-07-29T11:45:55.845Z,1.10
2022-07-29T11:50:26.943Z,1.30
2022-07-29T11:54:27.863Z,1.40
2022-07-29T11:58:18.681Z,1.23
2022-07-29T12:02:37.066Z,0.85
2022-07-29T12:06:18.094Z,1.10
2022-07-29T12:10:41.813Z,1.07
2022-07-29T12:14:35.032Z,1.33
2022-07-29T12:18:34.946Z,1.45
2022-07-29T12:22:29.036Z,1.83
2022-07-29T12:26:28.185Z,0.90
2022-07-29T12:30:20.547Z,1.50
2022-07-29T12:34:24.682Z,1.52
2022-07-29T12:38:16.489Z,1.05
2022-07-29T12:42:14.998Z,1.03
2022-07-29T12:46:16.094Z,1.08
2022-07-29T12:50:11.914Z,1.30
2022-07-29T12:59:09.151Z,1.20
2022-07-29T13:03:08.084Z,1.02
2022-07-29T13:07:04.525Z,1.00
2022-07-29T13:10:54.223Z,0.90
2022-07-29T13:14:57.262Z,0.80
2022-07-29T13:18:48.439Z,1.40
2022-07-29T13:22:51.198Z,1.00
2022-07-29T13:26:42.280Z,0.90
2022-07-29T13:30:44.941Z,0.90
2022-07-29T13:34:34.534Z,0.83
2022-07-29T13:38:33.956Z,1.00
2022-07-29T13:42:27.737Z,1.13
2022-07-29T13:46:26.951Z,1.00
2022-07-29T13:50:20.584Z,0.90
2022-07-29T13:54:20.168Z,1.20
2022-07-29T14:04:27.964Z,0.97
2022-07-29T14:08:20.882Z,0.90
2022-07-29T14:12:22.775Z,1.10
2022-07-29T14:16:14.840Z,1.53
2022-07-29T14:20:13.644Z,0.77
2022-07-29T14:24:44.168Z,0.93
2022-07-29T14:28:41.694Z,1.33
2022-07-29T14:33:43.277Z,0.70
2022-07-29T14:37:40.705Z,0.80
2022-07-29T14:41:37.601Z,1.00
2022-07-29T14:46:08.995Z,1.00
2022-07-29T14:55:16.637Z,1.33
2022-07-29T14:59:39.202Z,1.30
2022-07-29T15:04:08.502Z,1.00
2022-07-29T15:08:43.507Z,1.20
2022-07-29T15:12:34.825Z,1.20
2022-07-29T15:21:07.965Z,1.40
2022-07-29T15:24:56.990Z,1.10
2022-07-29T15:28:59.915Z,1.33
2022-07-29T15:33:30.563Z,1.67
2022-07-29T15:37:19.438Z,1.40
2022-07-29T15:41:24.563Z,1.13
2022-07-29T15:45:14.941Z,1.30
2022-07-29T15:49:18.419Z,1.58
2022-07-29T15:53:07.986Z,1.10
2022-07-29T15:57:10.736Z,1.57
2022-07-29T16:01:01.378Z,1.40
2022-07-29T16:09:33.819Z,1.83
2022-07-29T16:13:25.040Z,1.70
2022-07-29T16:17:26.151Z,2.08
2022-07-29T16:21:17.703Z,2.22
2022-07-29T16:25:20.913Z,1.57
2022-07-29T16:29:09.310Z,1.40
2022-07-29T16:33:12.325Z,1.30
2022-07-29T16:37:05.146Z,2.30
2022-07-29T16:41:07.460Z,1.48
2022-07-29T16:44:57.157Z,1.52
2022-07-29T16:49:00.087Z,2.05
2022-07-29T16:52:50.169Z,1.77
2022-07-29T16:56:53.002Z,1.70
2022-07-29T17:00:43.453Z,1.70
2022-07-29T17:04:46.818Z,1.70
2022-07-29T17:08:36.207Z,1.85
2022-07-29T17:12:40.619Z,1.88
2022-07-29T17:16:30.225Z,1.80
2022-07-29T17:20:29.711Z,1.88
2022-07-29T17:24:23.077Z,1.55
2022-07-29T17:28:26.884Z,1.95
2022-07-29T17:32:54.975Z,2.07
2022-07-29T17:36:44.224Z,1.80
2022-07-29T17:40:47.260Z,1.90
2022-07-29T17:44:37.473Z,1.70
2022-07-29T17:48:41.442Z,1.50
2022-07-29T17:52:31.497Z,1.65
2022-07-29T17:56:34.033Z,1.77
2022-07-29T18:00:25.185Z,1.33
2022-07-29T18:04:28.730Z,1.77
2022-07-29T18:08:18.870Z,1.80
2022-07-29T18:12:22.394Z,1.50
2022-07-29T18:16:10.983Z,1.50
2022-07-29T18:20:14.364Z,1.48
2022-07-29T18:24:04.206Z,1.57
2022-07-29T18:28:06.993Z,1.40
2022-07-29T18:31:58.930Z,1.30
2022-07-29T18:36:10.065Z,1.40
2022-07-29T18:40:29.939Z,2.10
2022-07-29T18:44:21.858Z,1.33
2022-07-29T18:53:20.215Z,1.17
2022-07-29T18:57:55.392Z,1.38
2022-07-29T19:01:54.455Z,1.30
2022-07-29T19:05:44.996Z,1.30
2022-07-29T19:09:49.551Z,0.95
2022-07-29T19:14:45.396Z,1.37
2022-07-29T19:18:48.318Z,1.10
2022-07-29T19:22:38.153Z,1.60
2022-07-29T19:31:11.387Z,1.48
2022-07-29T19:40:12.439Z,1.42
2022-07-29T19:44:02.214Z,1.17
2022-07-29T19:56:42.192Z,1.47
2022-07-29T20:00:29.007Z,2.10
2022-07-29T20:04:31.466Z,1.52
2022-07-29T20:08:14.163Z,1.90
2022-07-29T20:11:56.111Z,2.00
2022-07-29T20:15:38.133Z,1.90
2022-07-29T20:19:20.123Z,1.70
2022-07-29T20:23:03.001Z,2.10
2022-07-29T20:26:44.966Z,1.52
2022-07-29T20:30:27.058Z,1.40
2022-07-29T20:34:10.158Z,1.97
2022-07-29T20:37:56.175Z,1.83
2022-07-29T20:41:39.209Z,2.00
2022-07-29T20:45:21.363Z,1.80
2022-07-29T20:49:03.506Z,2.00
2022-07-29T20:52:45.802Z,2.10
2022-07-29T20:56:27.830Z,2.20
2022-07-29T21:00:10.484Z,2.20
2022-07-29T21:03:52.424Z,2.30
2022-07-29T21:07:34.590Z,2.80
2022-07-29T21:11:16.513Z,2.27
2022-07-29T21:14:58.430Z,2.28
2022-07-29T21:18:41.374Z,2.90
2022-07-29T21:22:23.307Z,2.50
2022-07-29T21:26:09.822Z,2.17
2022-07-29T21:29:54.479Z,2.92
2022-07-29T21:33:37.334Z,2.30
2022-07-29T21:37:19.323Z,2.17
2022-07-29T21:41:02.011Z,2.35
2022-07-29T21:44:44.109Z,2.42
2022-07-29T21:48:28.052Z,2.50
2022-07-29T21:52:09.992Z,2.50
2022-07-29T21:55:55.999Z,2.50
2022-07-29T21:59:38.179Z,2.70
2022-07-29T22:03:20.100Z,2.38
2022-07-29T22:07:02.631Z,2.83
2022-07-29T22:10:44.933Z,2.53
2022-07-29T22:14:27.140Z,2.77
2022-07-29T22:18:09.042Z,3.22
2022-07-29T22:21:50.947Z,3.05
2022-07-29T22:25:34.038Z,2.97
2022-07-29T22:29:17.821Z,2.70
2022-07-29T22:32:59.715Z,3.42
2022-07-29T22:36:41.653Z,2.90
2022-07-29T22:40:30.810Z,3.10
2022-07-29T22:44:14.934Z,3.08
2022-07-29T22:47:59.483Z,2.72
2022-07-29T22:51:41.503Z,2.67
2022-07-29T22:55:23.421Z,3.33
2022-07-29T22:59:05.331Z,3.17
2022-07-29T23:02:47.625Z,2.93
2022-07-29T23:06:29.759Z,3.38
2022-07-29T23:10:12.133Z,3.20
2022-07-29T23:13:54.037Z,3.90
2022-07-29T23:17:36.707Z,3.88
2022-07-29T23:21:21.051Z,4.40
2022-07-29T23:25:03.010Z,4.30
2022-07-29T23:28:45.933Z,3.50
2022-07-29T23:32:27.872Z,3.38
2022-07-29T23:36:09.807Z,3.60
2022-07-29T23:39:51.683Z,3.50
2022-07-29T23:43:33.852Z,4.05
2022-07-29T23:47:15.722Z,3.47
2022-07-29T23:50:58.393Z,3.50
2022-07-29T23:54:40.257Z,3.40
2022-07-29T23:58:22.191Z,3.63
